MSC Vanessa — HOWD — position and weather

sailwx.info

Track history (hours):
 
Tides and Currents Weather Stations Pressure Air Temp Water Temp Dewpoint Dewpoint Depression Visibility Wind Speed Wind Dir Waves Ship Positions

MSC Vanessa

Last reported at 2016-Feb-06 02:28 UTC. Time now 2016-Feb-06 03:02 UTC.
Position N 36°53' W 076°21'.

Length 300 m; draft 9.5 m.

Type: Cargo ship. MMSI: 356946000.

Date/timePositionNaut miles runAvg speedWind from/ knotsBaromVisibWave heightAir tempDewpointWater temp
2016-Feb-06 02:28N 36°53' W 076°21'0 0.0
2016-Feb-06 01:28N 36°53' W 076°21'0 0.0
2016-Feb-06 00:31N 36°53' W 076°21'0 0.0
2016-Feb-05 23:31N 36°53' W 076°21'0 0.0
2016-Feb-05 22:31N 36°53' W 076°21'1 0.5
2016-Feb-05 21:34N 36°53' W 076°20'9 8.9
2016-Feb-05 20:32N 37°00' W 076°14'1414.4
2016-Feb-05 19:33N 36°56' W 075°57'12 0.6
2016-Feb-05 00:11N 36°49' W 075°46'6 8.6
2016-Feb-04 23:33N 36°52' W 075°52'8 8.3
2016-Feb-04 22:34N 36°57' W 076°00'3 2.5
2016-Feb-04 21:33N 36°56' W 075°57'3 3.3
2016-Feb-04 20:33N 36°57' W 076°01'5 5.2
2016-Feb-04 19:34N 36°55' W 075°55'7 6.4
2016-Feb-04 18:27N 36°51' W 075°48'62218.7
2016-Feb-03 09:15N 27°00' W 079°37'1522.1
2016-Feb-03 08:33N 26°47' W 079°44'2523.5
2016-Feb-03 07:28N 26°22' W 079°53'1719.0
2016-Feb-03 06:33N 26°07' W 080°02'5 5.1
2016-Feb-03 05:33N 26°04' W 080°07'0 0.0
2016-Feb-03 04:33N 26°04' W 080°07'0 0.0
2016-Feb-03 03:31N 26°04' W 080°07'0 0.0
2016-Feb-03 02:31N 26°04' W 080°07'0 0.0
2016-Feb-03 01:31N 26°04' W 080°07'0 0.0
2016-Feb-03 00:31N 26°04' W 080°07'0 0.0
2016-Feb-02 23:31N 26°04' W 080°07'0 0.0
2016-Feb-02 22:31N 26°04' W 080°07'0 0.0
2016-Feb-02 21:31N 26°04' W 080°07'0 0.0
2016-Feb-02 20:31N 26°04' W 080°07'0 0.0
2016-Feb-02 19:31N 26°04' W 080°07'0 0.0
2016-Feb-02 18:28N 26°04' W 080°07'0 0.0
2016-Feb-02 17:28N 26°04' W 080°07'0 0.0
2016-Feb-02 16:31N 26°04' W 080°07'0 0.0
2016-Feb-02 15:28N 26°04' W 080°07'0 0.0
2016-Feb-02 14:28N 26°04' W 080°07'0 0.0
2016-Feb-02 13:31N 26°04' W 080°07'0 0.0
2016-Feb-02 12:31N 26°04' W 080°07'0 0.0
2016-Feb-02 11:31N 26°04' W 080°07'0 0.0
2016-Feb-02 10:31N 26°04' W 080°07'0 0.4
2016-Feb-02 09:33N 26°05' W 080°07'5 5.4
2016-Feb-02 08:33N 26°06' W 080°01'6 5.7
2016-Feb-02 07:33N 26°06' W 079°55'1111.2
2016-Feb-02 06:34N 26°11' W 079°44'1211.8
2016-Feb-02 05:33N 26°16' W 079°31'1212.1
2016-Feb-02 04:34N 26°20' W 079°19'1110.7
2016-Feb-02 03:33N 26°24' W 079°08'  
Track history (hours):
 
Tides and Currents Weather Stations Pressure Air Temp Water Temp Dewpoint Dewpoint Depression Visibility Wind Speed Wind Dir Waves Ship Positions

MSC Vanessa

Last reported at 2016-Feb-06 02:28 UTC. Time now 2016-Feb-06 03:02 UTC.
Position N 36°53' W 076°21'.

Length 300 m; draft 9.5 m.

Type: Cargo ship. MMSI: 356946000.

Date/timePositionNaut miles runAvg speedWind from/ knotsBaromVisibWave heightAir tempDewpointWater temp
2016-Feb-06 02:28N 36°53' W 076°21'0 0.0
2016-Feb-06 01:28N 36°53' W 076°21'0 0.0
2016-Feb-06 00:31N 36°53' W 076°21'0 0.0
2016-Feb-05 23:31N 36°53' W 076°21'0 0.0
2016-Feb-05 22:31N 36°53' W 076°21'1 0.5
2016-Feb-05 21:34N 36°53' W 076°20'9 8.9
2016-Feb-05 20:32N 37°00' W 076°14'1414.4
2016-Feb-05 19:33N 36°56' W 075°57'12 0.6
2016-Feb-05 00:11N 36°49' W 075°46'6 8.6
2016-Feb-04 23:33N 36°52' W 075°52'8 8.3
2016-Feb-04 22:34N 36°57' W 076°00'3 2.5
2016-Feb-04 21:33N 36°56' W 075°57'3 3.3
2016-Feb-04 20:33N 36°57' W 076°01'5 5.2
2016-Feb-04 19:34N 36°55' W 075°55'7 6.4
2016-Feb-04 18:27N 36°51' W 075°48'62218.7
2016-Feb-03 09:15N 27°00' W 079°37'1522.1
2016-Feb-03 08:33N 26°47' W 079°44'2523.5
2016-Feb-03 07:28N 26°22' W 079°53'1719.0
2016-Feb-03 06:33N 26°07' W 080°02'5 5.1
2016-Feb-03 05:33N 26°04' W 080°07'0 0.0
2016-Feb-03 04:33N 26°04' W 080°07'0 0.0
2016-Feb-03 03:31N 26°04' W 080°07'0 0.0
2016-Feb-03 02:31N 26°04' W 080°07'0 0.0
2016-Feb-03 01:31N 26°04' W 080°07'0 0.0
2016-Feb-03 00:31N 26°04' W 080°07'0 0.0
2016-Feb-02 23:31N 26°04' W 080°07'0 0.0
2016-Feb-02 22:31N 26°04' W 080°07'0 0.0
2016-Feb-02 21:31N 26°04' W 080°07'0 0.0
2016-Feb-02 20:31N 26°04' W 080°07'0 0.0
2016-Feb-02 19:31N 26°04' W 080°07'0 0.0
2016-Feb-02 18:28N 26°04' W 080°07'0 0.0
2016-Feb-02 17:28N 26°04' W 080°07'0 0.0
2016-Feb-02 16:31N 26°04' W 080°07'0 0.0
2016-Feb-02 15:28N 26°04' W 080°07'0 0.0
2016-Feb-02 14:28N 26°04' W 080°07'0 0.0
2016-Feb-02 13:31N 26°04' W 080°07'0 0.0
2016-Feb-02 12:31N 26°04' W 080°07'0 0.0
2016-Feb-02 11:31N 26°04' W 080°07'0 0.0
2016-Feb-02 10:31N 26°04' W 080°07'0 0.4
2016-Feb-02 09:33N 26°05' W 080°07'5 5.4
2016-Feb-02 08:33N 26°06' W 080°01'6 5.7
2016-Feb-02 07:33N 26°06' W 079°55'1111.2
2016-Feb-02 06:34N 26°11' W 079°44'1211.8
2016-Feb-02 05:33N 26°16' W 079°31'1212.1
2016-Feb-02 04:34N 26°20' W 079°19'1110.7
2016-Feb-02 03:33N 26°24' W 079°08'  

Dump ship's entire track history